createdAt,value
2022-10-15T00:01:08.838Z,11.60
2022-10-15T00:03:38.785Z,11.60
2022-10-15T00:06:09.934Z,11.60
2022-10-15T00:08:38.413Z,11.60
2022-10-15T00:11:09.613Z,11.60
2022-10-15T00:13:37.849Z,11.60
2022-10-15T00:16:08.173Z,11.60
2022-10-15T00:18:36.385Z,11.60
2022-10-15T00:21:09.265Z,11.60
2022-10-15T00:23:37.617Z,11.60
2022-10-15T00:26:07.388Z,11.60
2022-10-15T00:28:35.622Z,11.50
2022-10-15T00:31:05.655Z,11.40
2022-10-15T00:33:33.584Z,11.40
2022-10-15T00:36:03.224Z,11.30
2022-10-15T00:38:32.523Z,11.30
2022-10-15T00:41:00.831Z,11.20
2022-10-15T00:43:43.833Z,11.20
2022-10-15T00:46:23.368Z,11.10
2022-10-15T00:48:56.768Z,11.00
2022-10-15T00:51:27.726Z,11.00
2022-10-15T00:53:57.419Z,11.00
2022-10-15T00:56:27.776Z,11.00
2022-10-15T00:58:57.125Z,11.00
2022-10-15T01:01:25.822Z,10.90
2022-10-15T01:03:55.552Z,10.90
2022-10-15T01:06:24.065Z,10.90
2022-10-15T01:08:52.640Z,10.80
2022-10-15T01:11:31.733Z,10.80
2022-10-15T01:14:12.263Z,10.80
2022-10-15T01:16:47.082Z,10.70
2022-10-15T01:19:28.356Z,10.70
2022-10-15T01:22:02.962Z,10.60
2022-10-15T01:24:50.060Z,10.60
2022-10-15T01:27:29.710Z,10.60
2022-10-15T01:30:21.698Z,10.60
2022-10-15T01:33:09.905Z,10.60
2022-10-15T01:35:47.848Z,10.60
2022-10-15T01:38:27.696Z,10.50
2022-10-15T01:40:59.284Z,10.50
2022-10-15T01:43:34.078Z,10.60
2022-10-15T01:46:07.496Z,10.40
2022-10-15T01:48:38.284Z,10.50
2022-10-15T01:51:07.926Z,10.30
2022-10-15T01:53:37.531Z,10.20
2022-10-15T01:56:08.659Z,10.20
2022-10-15T01:58:40.152Z,10.10
2022-10-15T02:01:09.521Z,10.00
2022-10-15T02:03:46.540Z,10.00
2022-10-15T02:06:20.903Z,10.00
2022-10-15T02:09:08.362Z,10.00
2022-10-15T02:11:46.927Z,9.90
2022-10-15T02:14:21.011Z,9.90
2022-10-15T02:16:56.894Z,9.90
2022-10-15T02:19:31.599Z,9.80
2022-10-15T02:22:06.482Z,9.80
2022-10-15T02:24:37.607Z,9.80
2022-10-15T02:27:07.288Z,9.80
2022-10-15T02:29:37.147Z,9.70
2022-10-15T02:32:08.301Z,9.70
2022-10-15T02:34:37.490Z,9.60
2022-10-15T02:37:08.398Z,9.50
2022-10-15T02:39:36.386Z,9.50
2022-10-15T02:42:05.252Z,9.50
2022-10-15T02:44:33.538Z,9.50
2022-10-15T02:47:01.470Z,9.50
2022-10-15T02:49:30.698Z,9.50
2022-10-15T02:51:59.217Z,9.50
2022-10-15T02:54:27.182Z,9.50
2022-10-15T02:56:55.045Z,9.40
2022-10-15T02:59:22.942Z,9.40
2022-10-15T03:01:51.001Z,9.40
2022-10-15T03:04:19.014Z,9.50
2022-10-15T03:06:48.493Z,9.40
2022-10-15T03:09:16.386Z,9.40
2022-10-15T03:11:44.281Z,9.40
2022-10-15T03:14:12.614Z,9.50
2022-10-15T03:16:40.514Z,9.40
2022-10-15T03:19:08.602Z,9.30
2022-10-15T03:21:36.478Z,9.30
2022-10-15T03:24:06.298Z,9.30
2022-10-15T03:26:34.234Z,9.20
2022-10-15T03:29:02.145Z,9.10
2022-10-15T03:31:30.042Z,9.00
2022-10-15T03:33:57.925Z,9.10
2022-10-15T03:36:25.822Z,9.10
2022-10-15T03:38:53.709Z,9.10
2022-10-15T03:41:22.987Z,9.10
2022-10-15T03:43:50.866Z,9.10
2022-10-15T03:46:18.749Z,9.10
2022-10-15T03:48:50.354Z,9.10
2022-10-15T03:51:22.073Z,9.20
2022-10-15T03:53:53.397Z,9.20
2022-10-15T03:56:22.877Z,9.20
2022-10-15T03:58:50.986Z,9.10
2022-10-15T04:01:20.183Z,9.10
2022-10-15T04:03:48.308Z,9.20
2022-10-15T04:06:16.185Z,9.10
2022-10-15T04:08:44.096Z,9.00
2022-10-15T04:11:12.080Z,9.10
2022-10-15T04:13:41.376Z,9.10
2022-10-15T04:16:09.348Z,9.10
2022-10-15T04:18:37.239Z,9.20
2022-10-15T04:21:05.616Z,9.20
2022-10-15T04:23:33.529Z,9.20
2022-10-15T04:26:01.919Z,9.20
2022-10-15T04:28:30.271Z,9.30
2022-10-15T04:31:00.276Z,9.20
2022-10-15T04:33:28.707Z,9.20
2022-10-15T04:36:01.480Z,9.20
2022-10-15T04:38:29.459Z,9.30
2022-10-15T04:41:02.688Z,9.30
2022-10-15T04:43:30.764Z,9.40
2022-10-15T04:46:01.443Z,9.40
2022-10-15T04:48:30.547Z,9.40
2022-10-15T04:51:04.788Z,9.40
2022-10-15T04:53:33.052Z,9.40
2022-10-15T04:56:05.310Z,9.40
2022-10-15T04:58:33.919Z,9.40
2022-10-15T05:01:05.669Z,9.40
2022-10-15T05:03:36.457Z,9.40
2022-10-15T05:06:09.474Z,9.50
2022-10-15T05:08:41.790Z,9.40
2022-10-15T05:11:12.326Z,9.40
2022-10-15T05:13:40.256Z,9.40
2022-10-15T05:16:15.713Z,9.40
2022-10-15T05:18:46.108Z,9.40
2022-10-15T05:21:14.579Z,9.50
2022-10-15T05:23:44.050Z,9.50
2022-10-15T05:26:14.322Z,9.50
2022-10-15T05:28:42.501Z,9.50
2022-10-15T05:31:18.339Z,9.40
2022-10-15T05:33:47.155Z,9.50
2022-10-15T05:36:18.113Z,9.50
2022-10-15T05:38:46.104Z,9.50
2022-10-15T05:41:14.057Z,9.50
2022-10-15T05:43:42.160Z,9.60
2022-10-15T05:46:10.609Z,9.50
2022-10-15T05:48:39.902Z,9.50
2022-10-15T05:51:11.482Z,9.50
2022-10-15T05:53:40.539Z,9.50
2022-10-15T05:56:09.146Z,9.60
2022-10-15T05:58:37.838Z,9.60
2022-10-15T06:01:07.585Z,9.70
2022-10-15T06:03:36.153Z,9.70
2022-10-15T06:06:05.833Z,9.80
2022-10-15T06:08:33.887Z,9.90
2022-10-15T06:11:08.323Z,10.00
2022-10-15T06:13:39.103Z,10.00
2022-10-15T06:16:07.585Z,10.20
2022-10-15T06:18:35.869Z,10.20
2022-10-15T06:21:05.647Z,10.30
2022-10-15T06:23:33.673Z,10.30
2022-10-15T06:26:04.256Z,10.40
2022-10-15T06:28:32.363Z,10.50
2022-10-15T06:31:00.755Z,10.50
2022-10-15T06:33:29.245Z,10.60
2022-10-15T06:35:57.217Z,10.60
2022-10-15T06:38:26.517Z,10.60
2022-10-15T06:40:54.422Z,10.70
2022-10-15T06:43:22.350Z,10.70
2022-10-15T06:45:50.229Z,10.70
2022-10-15T06:48:18.698Z,10.70
2022-10-15T06:50:46.757Z,10.80
2022-10-15T06:53:14.674Z,10.90
2022-10-15T06:55:44.187Z,10.80
2022-10-15T06:58:12.074Z,10.90
2022-10-15T07:00:39.987Z,10.90
2022-10-15T07:03:08.945Z,11.00
2022-10-15T07:05:37.013Z,11.00
2022-10-15T07:08:05.161Z,11.10
2022-10-15T07:10:33.158Z,11.10
2022-10-15T07:13:03.085Z,11.10
2022-10-15T07:15:31.028Z,11.20
2022-10-15T07:18:01.566Z,11.20
2022-10-15T07:20:30.421Z,11.20
2022-10-15T07:22:59.533Z,11.20
2022-10-15T07:25:28.187Z,11.20
2022-10-15T07:27:56.877Z,11.20
2022-10-15T07:30:28.480Z,11.20
2022-10-15T07:32:57.544Z,11.30
2022-10-15T07:35:25.792Z,11.30
2022-10-15T07:37:53.684Z,11.30
2022-10-15T07:40:21.846Z,11.30
2022-10-15T07:42:54.235Z,11.40
2022-10-15T07:45:22.448Z,11.50
2022-10-15T07:47:51.801Z,11.60
2022-10-15T07:50:20.188Z,11.60
2022-10-15T07:52:48.420Z,11.70
2022-10-15T07:55:16.436Z,11.80
2022-10-15T07:57:44.377Z,11.90
2022-10-15T08:00:13.357Z,12.00
2022-10-15T08:02:41.494Z,12.10
2022-10-15T08:05:11.072Z,12.20
2022-10-15T08:07:39.004Z,12.30
2022-10-15T08:10:07.954Z,12.40
2022-10-15T08:12:35.828Z,12.50
2022-10-15T08:15:03.900Z,12.60
2022-10-15T08:17:32.323Z,12.60
2022-10-15T08:20:00.219Z,12.70
2022-10-15T08:22:29.438Z,12.70
2022-10-15T08:24:57.359Z,12.60
2022-10-15T08:27:25.289Z,12.70
2022-10-15T08:29:53.202Z,12.70
2022-10-15T08:32:21.459Z,12.80
2022-10-15T08:34:49.451Z,12.80
2022-10-15T08:37:17.360Z,12.90
2022-10-15T08:39:46.845Z,12.90
2022-10-15T08:42:20.844Z,13.00
2022-10-15T08:44:53.115Z,13.10
2022-10-15T08:47:30.032Z,13.10
2022-10-15T08:49:59.831Z,13.20
2022-10-15T08:52:35.107Z,13.20
2022-10-15T08:55:04.863Z,13.20
2022-10-15T08:57:41.187Z,13.30
2022-10-15T09:00:18.138Z,13.20
2022-10-15T09:02:53.538Z,13.20
2022-10-15T09:05:33.122Z,13.20
2022-10-15T09:08:07.606Z,13.20
2022-10-15T09:10:44.517Z,13.20
2022-10-15T09:13:16.609Z,13.40
2022-10-15T09:15:51.745Z,13.40
2022-10-15T09:18:23.832Z,13.40
2022-10-15T09:20:53.250Z,13.40
2022-10-15T09:23:24.034Z,13.50
2022-10-15T09:26:03.302Z,13.50
2022-10-15T09:28:40.821Z,13.50
2022-10-15T09:31:11.269Z,13.50
2022-10-15T09:33:44.061Z,13.50
2022-10-15T09:36:22.989Z,13.50
2022-10-15T09:39:02.486Z,13.60
2022-10-15T09:41:40.865Z,13.60
2022-10-15T09:44:14.044Z,13.60
2022-10-15T09:46:46.494Z,13.60
2022-10-15T09:49:19.410Z,13.70
2022-10-15T09:51:55.732Z,13.80
2022-10-15T09:54:29.877Z,13.90
2022-10-15T09:56:59.386Z,14.00
2022-10-15T09:59:28.124Z,14.10
2022-10-15T10:02:01.654Z,14.10
2022-10-15T10:04:31.661Z,14.20
2022-10-15T10:07:01.855Z,14.20
2022-10-15T10:09:34.129Z,14.20
2022-10-15T10:12:07.302Z,14.30
2022-10-15T10:14:37.869Z,14.40
2022-10-15T10:17:16.208Z,14.40
2022-10-15T10:19:45.325Z,14.50
2022-10-15T10:22:17.364Z,14.50
2022-10-15T10:24:46.008Z,14.60
2022-10-15T10:27:23.040Z,14.60
2022-10-15T10:29:56.412Z,14.50
2022-10-15T10:32:29.337Z,14.40
2022-10-15T10:34:57.553Z,14.40
2022-10-15T10:37:26.102Z,14.30
2022-10-15T10:39:56.614Z,14.30
2022-10-15T10:42:31.838Z,14.30
2022-10-15T10:45:18.793Z,14.30
2022-10-15T10:47:47.448Z,14.40
2022-10-15T10:50:34.590Z,14.40
2022-10-15T10:53:21.337Z,14.50
2022-10-15T10:55:50.505Z,14.60
2022-10-15T10:58:26.286Z,14.60
2022-10-15T11:00:56.548Z,14.70
2022-10-15T11:03:32.852Z,14.80
2022-10-15T11:06:13.294Z,14.80
2022-10-15T11:08:49.049Z,14.90
2022-10-15T11:11:26.272Z,15.00
2022-10-15T11:14:04.850Z,15.20
2022-10-15T11:16:39.256Z,15.40
2022-10-15T11:22:36.072Z,15.60
2022-10-15T11:25:15.022Z,15.70
2022-10-15T11:27:54.289Z,15.70
2022-10-15T11:30:36.076Z,15.80
2022-10-15T11:33:18.255Z,15.80
2022-10-15T11:35:54.030Z,15.80
2022-10-15T11:38:31.042Z,15.90
2022-10-15T11:41:15.763Z,15.90
2022-10-15T11:43:59.223Z,16.00
2022-10-15T11:46:31.900Z,16.00
2022-10-15T11:49:13.347Z,15.90
2022-10-15T11:52:00.335Z,16.00
2022-10-15T11:54:36.039Z,16.00
2022-10-15T11:57:06.051Z,15.90
2022-10-15T11:59:40.088Z,15.90
2022-10-15T12:02:15.015Z,15.90
2022-10-15T12:04:47.671Z,15.80
2022-10-15T12:07:21.398Z,15.80
2022-10-15T12:09:54.523Z,15.70
2022-10-15T12:12:38.460Z,15.80
2022-10-15T12:15:22.532Z,15.90
2022-10-15T12:17:56.719Z,16.00
2022-10-15T12:20:25.339Z,16.20
2022-10-15T12:22:58.663Z,16.50
2022-10-15T12:25:42.451Z,16.90
2022-10-15T12:28:17.736Z,17.30
2022-10-15T12:30:56.086Z,17.60
2022-10-15T12:33:48.298Z,17.70
2022-10-15T12:36:28.283Z,17.80
2022-10-15T12:39:00.427Z,17.70
2022-10-15T12:41:41.275Z,17.90
2022-10-15T12:44:18.039Z,18.00
2022-10-15T12:46:46.007Z,18.30
2022-10-15T12:49:59.226Z,18.50
2022-10-15T12:52:56.814Z,18.50
2022-10-15T12:55:28.545Z,18.40
2022-10-15T12:58:02.142Z,18.30
2022-10-15T13:00:37.742Z,18.30
2022-10-15T13:03:35.423Z,18.30
2022-10-15T13:06:31.417Z,18.20
2022-10-15T13:09:06.618Z,18.00
2022-10-15T13:11:38.108Z,17.80
2022-10-15T13:14:18.737Z,17.60
2022-10-15T13:16:47.779Z,17.40
2022-10-15T13:19:19.871Z,17.30
2022-10-15T13:21:54.440Z,17.10
2022-10-15T13:24:23.930Z,17.10
2022-10-15T13:26:52.683Z,17.00
2022-10-15T13:29:23.179Z,17.00
2022-10-15T13:31:52.173Z,17.00
2022-10-15T13:34:28.337Z,17.00
2022-10-15T13:37:01.327Z,17.00
2022-10-15T13:42:11.274Z,16.90
2022-10-15T13:44:39.204Z,16.80
2022-10-15T13:47:25.646Z,16.80
2022-10-15T13:50:11.281Z,16.80
2022-10-15T13:52:42.500Z,16.70
2022-10-15T13:55:20.729Z,16.70
2022-10-15T13:57:51.027Z,16.60
2022-10-15T14:00:25.222Z,16.60
2022-10-15T14:03:16.937Z,16.60
2022-10-15T14:05:46.118Z,16.60
2022-10-15T14:08:27.608Z,16.60
2022-10-15T14:10:58.244Z,16.60
2022-10-15T14:13:26.861Z,16.60
2022-10-15T14:18:37.489Z,16.50
2022-10-15T14:21:11.421Z,16.50
2022-10-15T14:23:41.669Z,16.40
2022-10-15T14:26:10.826Z,16.40
2022-10-15T14:28:39.475Z,16.40
2022-10-15T14:31:08.715Z,16.40
2022-10-15T14:33:45.734Z,16.40
2022-10-15T14:36:29.108Z,16.40
2022-10-15T14:39:26.349Z,16.40
2022-10-15T14:42:02.324Z,16.40
2022-10-15T14:44:42.927Z,16.30
2022-10-15T14:47:21.213Z,16.30
2022-10-15T14:49:50.256Z,16.40
2022-10-15T14:52:20.635Z,16.30
2022-10-15T14:55:00.545Z,16.50
2022-10-15T14:57:31.528Z,16.30
2022-10-15T15:00:00.770Z,16.30
2022-10-15T15:02:30.720Z,16.20
2022-10-15T15:05:10.336Z,16.20
2022-10-15T15:07:38.932Z,16.20
2022-10-15T15:10:09.904Z,16.20
2022-10-15T15:12:40.445Z,16.20
2022-10-15T15:15:15.057Z,16.20
2022-10-15T15:17:43.372Z,16.20
2022-10-15T15:20:12.378Z,16.20
2022-10-15T15:22:41.083Z,16.20
2022-10-15T15:25:15.721Z,16.20
2022-10-15T15:27:43.659Z,16.20
2022-10-15T15:30:17.108Z,16.20
2022-10-15T15:32:45.000Z,16.10
2022-10-15T15:35:21.856Z,16.10
2022-10-15T15:37:49.755Z,16.00
2022-10-15T15:40:19.751Z,16.10
2022-10-15T15:42:49.024Z,16.10
2022-10-15T15:45:20.827Z,16.00
2022-10-15T15:47:49.021Z,16.00
2022-10-15T15:50:17.857Z,16.00
2022-10-15T15:52:45.814Z,16.00
2022-10-15T15:55:14.968Z,16.00
2022-10-15T15:57:45.323Z,15.90
2022-10-15T16:00:14.422Z,15.90
2022-10-15T16:02:42.532Z,15.90
2022-10-15T16:05:13.691Z,15.90
2022-10-15T16:07:42.572Z,15.80
2022-10-15T16:10:12.045Z,15.80
2022-10-15T16:12:40.331Z,15.80
2022-10-15T16:15:13.547Z,15.80
2022-10-15T16:17:42.867Z,15.80
2022-10-15T16:20:12.140Z,15.80
2022-10-15T16:22:40.478Z,15.80
2022-10-15T16:25:09.619Z,15.70
2022-10-15T16:27:37.548Z,15.70
2022-10-15T16:30:06.291Z,15.70
2022-10-15T16:32:35.619Z,15.70
2022-10-15T16:35:03.561Z,15.70
2022-10-15T16:37:31.435Z,15.70
2022-10-15T16:39:59.390Z,15.60
2022-10-15T16:42:27.286Z,15.70
2022-10-15T16:44:55.182Z,15.70
2022-10-15T16:47:23.372Z,15.70
2022-10-15T16:49:53.562Z,15.60
2022-10-15T16:52:21.452Z,15.70
2022-10-15T16:54:49.356Z,15.60
2022-10-15T16:57:17.282Z,15.60
2022-10-15T16:59:45.194Z,15.60
2022-10-15T17:02:13.129Z,15.60
2022-10-15T17:04:41.022Z,15.60
2022-10-15T17:07:10.277Z,15.60
2022-10-15T17:09:38.967Z,15.60
2022-10-15T17:12:06.957Z,15.60
2022-10-15T17:14:37.907Z,15.60
2022-10-15T17:17:07.693Z,15.60
2022-10-15T17:19:35.868Z,15.60
2022-10-15T17:22:03.785Z,15.60
2022-10-15T17:24:33.093Z,15.50
2022-10-15T17:27:01.022Z,15.60
2022-10-15T17:29:32.464Z,15.50
2022-10-15T17:32:01.837Z,15.50
2022-10-15T17:34:30.027Z,15.50
2022-10-15T17:36:58.112Z,15.50
2022-10-15T17:39:26.065Z,15.50
2022-10-15T17:41:55.660Z,15.40
2022-10-15T17:44:23.569Z,15.40
2022-10-15T17:46:52.718Z,15.40
2022-10-15T17:49:20.935Z,15.40
2022-10-15T17:51:49.013Z,15.40
2022-10-15T17:54:17.186Z,15.40
2022-10-15T17:56:45.105Z,15.40
2022-10-15T17:59:14.370Z,15.40
2022-10-15T18:01:57.885Z,15.40
2022-10-15T18:04:27.501Z,15.40
2022-10-15T18:06:55.409Z,15.40
2022-10-15T18:09:23.354Z,15.40
2022-10-15T18:11:51.273Z,15.30
2022-10-15T18:16:53.700Z,15.30
2022-10-15T18:19:21.968Z,15.30
2022-10-15T18:21:50.127Z,15.30
2022-10-15T18:24:21.643Z,15.30
2022-10-15T18:26:50.472Z,15.30
2022-10-15T18:29:20.197Z,15.30
2022-10-15T18:31:52.206Z,15.20
2022-10-15T18:34:22.882Z,15.20
2022-10-15T18:36:50.805Z,15.20
2022-10-15T18:39:18.716Z,15.20
2022-10-15T18:41:46.769Z,15.20
2022-10-15T18:44:17.048Z,15.20
2022-10-15T18:46:46.328Z,15.20
2022-10-15T18:49:15.861Z,15.10
2022-10-15T18:51:45.823Z,15.10
2022-10-15T18:54:14.553Z,15.10
2022-10-15T18:56:42.450Z,15.10
2022-10-15T18:59:10.707Z,15.10
2022-10-15T19:01:41.695Z,15.10
2022-10-15T19:04:13.581Z,15.10
2022-10-15T19:06:43.306Z,15.10
2022-10-15T19:09:12.628Z,15.10
2022-10-15T19:11:42.419Z,15.10
2022-10-15T19:14:10.608Z,15.10
2022-10-15T19:16:38.509Z,15.10
2022-10-15T19:19:07.030Z,15.10
2022-10-15T19:21:37.561Z,15.10
2022-10-15T19:24:06.513Z,15.10
2022-10-15T19:26:34.614Z,15.10
2022-10-15T19:29:03.426Z,15.10
2022-10-15T19:31:33.811Z,15.10
2022-10-15T19:34:02.001Z,15.20
2022-10-15T19:36:33.066Z,15.10
2022-10-15T19:39:04.881Z,15.10
2022-10-15T19:41:32.829Z,15.10
2022-10-15T19:44:00.697Z,15.10
2022-10-15T19:46:29.314Z,15.00
2022-10-15T19:48:57.519Z,14.90
2022-10-15T19:51:25.470Z,14.90
2022-10-15T19:53:54.341Z,14.90
2022-10-15T19:56:24.322Z,14.90
2022-10-15T19:58:55.641Z,14.80
2022-10-15T20:01:23.834Z,14.70
2022-10-15T20:03:51.961Z,14.70
2022-10-15T20:06:20.813Z,14.70
2022-10-15T20:08:49.240Z,14.70
2022-10-15T20:11:18.960Z,14.70
2022-10-15T20:13:48.828Z,14.70
2022-10-15T20:16:18.501Z,14.80
2022-10-15T20:18:48.850Z,14.90
2022-10-15T20:21:17.420Z,14.90
2022-10-15T20:23:47.792Z,14.90
2022-10-15T20:26:16.836Z,14.90
2022-10-15T20:28:46.214Z,15.00
2022-10-15T20:31:18.794Z,14.90
2022-10-15T20:33:46.701Z,14.90
2022-10-15T20:36:21.188Z,15.00
2022-10-15T20:38:52.230Z,15.00
2022-10-15T20:41:20.713Z,15.00
2022-10-15T20:43:53.888Z,15.00
2022-10-15T20:46:26.792Z,14.90
2022-10-15T20:48:56.792Z,15.00
2022-10-15T20:51:28.384Z,14.90
2022-10-15T20:53:58.670Z,14.90
2022-10-15T20:56:26.717Z,14.90
2022-10-15T20:58:54.871Z,14.90
2022-10-15T21:01:24.193Z,14.90
2022-10-15T21:03:52.137Z,14.80
2022-10-15T21:06:20.699Z,14.80
2022-10-15T21:08:48.820Z,14.80
2022-10-15T21:11:16.979Z,14.80
2022-10-15T21:13:44.970Z,14.80
2022-10-15T21:16:13.009Z,14.80
2022-10-15T21:18:42.323Z,14.80
2022-10-15T21:21:12.470Z,14.80
2022-10-15T21:23:42.207Z,14.80
2022-10-15T21:26:12.250Z,14.80
2022-10-15T21:28:40.879Z,14.80
2022-10-15T21:31:10.114Z,14.90
2022-10-15T21:33:38.566Z,14.90
2022-10-15T21:36:21.659Z,14.90
2022-10-15T21:38:50.151Z,14.90
2022-10-15T21:41:18.035Z,14.80
2022-10-15T21:43:45.952Z,14.80
2022-10-15T21:46:15.370Z,14.80
2022-10-15T21:48:43.974Z,14.80
2022-10-15T21:51:13.558Z,14.90
2022-10-15T21:53:43.161Z,14.80
2022-10-15T21:56:11.325Z,15.00
2022-10-15T21:58:41.216Z,14.80
2022-10-15T22:01:13.553Z,14.80
2022-10-15T22:03:44.416Z,14.90
2022-10-15T22:06:13.044Z,14.80
2022-10-15T22:08:42.437Z,14.80
2022-10-15T22:11:12.721Z,14.80
2022-10-15T22:13:41.770Z,14.80
2022-10-15T22:16:10.526Z,14.80
2022-10-15T22:18:38.700Z,14.80
2022-10-15T22:21:15.206Z,14.80
2022-10-15T22:23:45.909Z,14.80
2022-10-15T22:26:14.629Z,14.70
2022-10-15T22:28:43.023Z,14.70
2022-10-15T22:31:12.949Z,14.70
2022-10-15T22:33:41.764Z,14.70
2022-10-15T22:36:14.445Z,14.70
2022-10-15T22:38:44.593Z,14.70
2022-10-15T22:41:13.443Z,14.70
2022-10-15T22:43:41.745Z,14.60
2022-10-15T22:46:10.240Z,14.70
2022-10-15T22:48:39.878Z,14.70
2022-10-15T22:51:09.390Z,14.70
2022-10-15T22:53:37.637Z,14.70
2022-10-15T22:56:09.290Z,14.70
2022-10-15T22:58:37.708Z,14.70
2022-10-15T23:01:11.172Z,14.70
2022-10-15T23:03:39.738Z,14.70
2022-10-15T23:06:08.032Z,14.60
2022-10-15T23:08:36.245Z,14.60
2022-10-15T23:11:10.202Z,14.60
2022-10-15T23:13:38.824Z,14.60
2022-10-15T23:16:12.877Z,14.50
2022-10-15T23:18:41.169Z,14.50
2022-10-15T23:21:14.688Z,14.50
2022-10-15T23:23:43.376Z,14.50
2022-10-15T23:26:14.992Z,14.50
2022-10-15T23:28:43.748Z,14.40
2022-10-15T23:31:17.002Z,14.30
2022-10-15T23:33:45.112Z,14.30
2022-10-15T23:36:13.044Z,14.20
2022-10-15T23:38:41.002Z,14.20
2022-10-15T23:41:10.453Z,14.10
2022-10-15T23:43:40.541Z,14.10
2022-10-15T23:46:09.428Z,14.00
2022-10-15T23:48:37.309Z,14.00
2022-10-15T23:51:13.390Z,14.00
2022-10-15T23:53:41.727Z,13.90
2022-10-15T23:56:09.918Z,13.90
2022-10-15T23:58:39.317Z,13.90
